createdAt,value
2018-08-09T00:00:08.761Z,0
2018-08-09T00:01:08.497Z,0
2018-08-09T00:02:08.483Z,0
2018-08-09T00:03:08.791Z,0
2018-08-09T00:04:07.942Z,0
2018-08-09T00:05:08.724Z,0
2018-08-09T00:06:08.441Z,0
2018-08-09T00:07:08.695Z,0
2018-08-09T00:08:08.422Z,0
2018-08-09T00:09:08.669Z,0
2018-08-09T00:10:08.143Z,0
2018-08-09T00:11:08.388Z,0
2018-08-09T00:12:08.374Z,0
2018-08-09T00:13:08.637Z,0
2018-08-09T00:14:08.358Z,0
2018-08-09T00:15:08.088Z,0
2018-08-09T00:16:07.810Z,0
2018-08-09T00:17:08.327Z,0
2018-08-09T00:18:08.320Z,0
2018-08-09T00:19:08.573Z,0
2018-08-09T00:20:07.779Z,0
2018-08-09T00:21:08.027Z,0
2018-08-09T00:22:08.018Z,0
2018-08-09T00:23:08.006Z,0
2018-08-09T00:24:08.528Z,0
2018-08-09T00:25:08.558Z,0
2018-08-09T00:26:08.500Z,0
2018-08-09T00:27:07.695Z,0
2018-08-09T00:28:08.480Z,0
2018-08-09T00:29:08.479Z,0
2018-08-09T00:30:07.944Z,0
2018-08-09T00:31:08.184Z,0
2018-08-09T00:32:07.910Z,0
2018-08-09T00:33:08.093Z,0
2018-08-09T00:34:07.624Z,0
2018-08-09T00:35:07.886Z,0
2018-08-09T00:36:08.394Z,0
2018-08-09T00:37:08.122Z,0
2018-08-09T00:38:08.111Z,0
2018-08-09T00:39:08.362Z,0
2018-08-09T00:40:07.571Z,0
2018-08-09T00:41:08.081Z,0
2018-08-09T00:42:08.336Z,0
2018-08-09T00:43:08.056Z,0
2018-08-09T00:44:07.780Z,0
2018-08-09T00:45:08.296Z,0
2018-08-09T00:46:08.028Z,0
2018-08-09T00:47:08.016Z,0
2018-08-09T00:48:07.748Z,0
2018-08-09T00:49:07.467Z,0
2018-08-09T00:50:08.238Z,0
2018-08-09T00:51:07.968Z,0
2018-08-09T00:52:07.964Z,0
2018-08-09T00:53:07.959Z,0
2018-08-09T00:54:07.945Z,0
2018-08-09T00:55:08.185Z,0
2018-08-09T00:56:07.662Z,0
2018-08-09T00:57:07.642Z,0
2018-08-09T00:58:07.901Z,0
2018-08-09T00:59:07.622Z,0
2018-08-09T01:00:08.140Z,0
2018-08-09T01:01:07.601Z,0
2018-08-09T01:02:07.328Z,0
2018-08-09T01:03:07.315Z,0
2018-08-09T01:04:08.105Z,0
2018-08-09T01:05:07.298Z,0
2018-08-09T01:06:07.555Z,0
2018-08-09T01:07:07.543Z,0
2018-08-09T01:08:07.797Z,0
2018-08-09T01:09:07.522Z,0
2018-08-09T01:10:08.043Z,0
2018-08-09T01:11:07.233Z,0
2018-08-09T01:12:08.022Z,0
2018-08-09T01:13:07.737Z,0
2018-08-09T01:14:07.993Z,0
2018-08-09T01:15:07.458Z,0
2018-08-09T01:16:07.439Z,0
2018-08-09T01:17:07.701Z,0
2018-08-09T01:18:07.692Z,0
2018-08-09T01:19:07.680Z,0
2018-08-09T01:20:07.930Z,0
2018-08-09T01:21:07.397Z,0
2018-08-09T01:22:07.120Z,0
2018-08-09T01:23:07.113Z,0
2018-08-09T01:24:07.628Z,0
2018-08-09T01:25:07.607Z,0
2018-08-09T01:26:07.867Z,0
2018-08-09T01:27:07.864Z,0
2018-08-09T01:28:07.314Z,0
2018-08-09T01:29:07.842Z,0
2018-08-09T01:30:07.556Z,0
2018-08-09T01:31:07.283Z,0
2018-08-09T01:32:07.270Z,0
2018-08-09T01:33:07.793Z,0
2018-08-09T01:34:07.253Z,0
2018-08-09T01:35:07.253Z,0
2018-08-09T01:36:07.763Z,0
2018-08-09T01:37:07.481Z,0
2018-08-09T01:38:07.210Z,0
2018-08-09T01:39:07.460Z,0
2018-08-09T01:40:07.193Z,0
2018-08-09T01:41:07.180Z,0
2018-08-09T01:42:07.168Z,0
2018-08-09T01:43:07.160Z,0
2018-08-09T01:44:07.415Z,0
2018-08-09T01:45:07.669Z,0
2018-08-09T01:46:07.660Z,0
2018-08-09T01:47:07.117Z,0
2018-08-09T01:48:07.102Z,0
2018-08-09T01:49:07.615Z,0
2018-08-09T01:50:07.087Z,0
2018-08-09T01:51:07.069Z,0
2018-08-09T01:52:07.328Z,0
2018-08-09T01:53:07.047Z,0
2018-08-09T01:54:07.567Z,0
2018-08-09T01:55:07.024Z,0
2018-08-09T01:56:07.293Z,0
2018-08-09T01:57:07.009Z,0
2018-08-09T01:58:07.275Z,0
2018-08-09T01:59:07.249Z,0
2018-08-09T02:00:06.977Z,0
2018-08-09T02:01:07.507Z,0
2018-08-09T02:02:06.702Z,0
2018-08-09T02:03:07.209Z,0
2018-08-09T02:04:07.202Z,0
2018-08-09T02:05:07.713Z,0
2018-08-09T02:06:07.174Z,0
2018-08-09T02:07:06.911Z,0
2018-08-09T02:08:07.221Z,0
2018-08-09T02:09:07.454Z,0
2018-08-09T02:10:07.398Z,0
2018-08-09T02:11:07.398Z,0
2018-08-09T02:12:07.374Z,0
2018-08-09T02:13:06.841Z,0
2018-08-09T02:14:07.084Z,0
2018-08-09T02:15:07.337Z,0
2018-08-09T02:16:07.336Z,0
2018-08-09T02:17:06.808Z,0
2018-08-09T02:18:06.775Z,0
2018-08-09T02:19:07.033Z,0
2018-08-09T02:20:07.021Z,0
2018-08-09T02:21:07.004Z,0
2018-08-09T02:22:07.002Z,0
2018-08-09T02:23:06.725Z,0
2018-08-09T02:24:06.976Z,0
2018-08-09T02:25:07.252Z,0
2018-08-09T02:26:07.221Z,0
2018-08-09T02:27:07.216Z,0
2018-08-09T02:28:06.933Z,0
2018-08-09T02:29:06.418Z,0
2018-08-09T02:30:06.661Z,0
2018-08-09T02:31:07.182Z,0
2018-08-09T02:32:06.620Z,0
2018-08-09T02:33:06.826Z,0
2018-08-09T02:34:06.874Z,0
2018-08-09T02:35:06.595Z,0
2018-08-09T02:36:06.847Z,0
2018-08-09T02:37:06.831Z,0
2018-08-09T02:38:06.570Z,0
2018-08-09T02:39:06.810Z,0
2018-08-09T02:40:06.851Z,0
2018-08-09T02:41:06.795Z,0
2018-08-09T02:42:06.778Z,0
2018-08-09T02:43:06.236Z,0
2018-08-09T02:44:06.495Z,0
2018-08-09T02:45:07.017Z,0
2018-08-09T02:46:06.485Z,0
2018-08-09T02:47:07.002Z,0
2018-08-09T02:48:06.447Z,0
2018-08-09T02:49:06.441Z,0
2018-08-09T02:50:06.698Z,0
2018-08-09T02:51:06.941Z,0
2018-08-09T02:52:06.671Z,0
2018-08-09T02:53:06.650Z,0
2018-08-09T02:54:06.380Z,0
2018-08-09T02:55:06.914Z,0
2018-08-09T02:56:06.614Z,0
2018-08-09T02:57:06.621Z,0
2018-08-09T02:58:06.592Z,0
2018-08-09T02:59:06.314Z,0
2018-08-09T03:00:06.843Z,0
2018-08-09T03:01:06.294Z,0
2018-08-09T03:02:06.817Z,0
2018-08-09T03:03:06.533Z,0
2018-08-09T03:04:06.515Z,0
2018-08-09T03:05:06.249Z,0
2018-08-09T03:06:06.232Z,0
2018-08-09T03:07:06.750Z,0
2018-08-09T03:08:06.491Z,0
2018-08-09T03:09:06.212Z,0
2018-08-09T03:10:06.241Z,0
2018-08-09T03:11:06.178Z,0
2018-08-09T03:12:06.427Z,0
2018-08-09T03:13:06.705Z,0
2018-08-09T03:14:06.142Z,0
2018-08-09T03:15:06.709Z,0
2018-08-09T03:16:05.860Z,0
2018-08-09T03:17:06.379Z,0
2018-08-09T03:18:06.623Z,0
2018-08-09T03:19:05.822Z,0
2018-08-09T03:20:05.800Z,0
2018-08-09T03:21:06.318Z,0
2018-08-09T03:22:06.321Z,0
2018-08-09T03:23:06.036Z,0
2018-08-09T03:24:06.281Z,0
2018-08-09T03:25:06.018Z,0
2018-08-09T03:26:06.257Z,0
2018-08-09T03:27:05.985Z,0
2018-08-09T03:28:06.240Z,0
2018-08-09T03:29:05.970Z,0
2018-08-09T03:30:06.001Z,0
2018-08-09T03:31:06.211Z,0
2018-08-09T03:32:06.501Z,0
2018-08-09T03:33:05.921Z,0
2018-08-09T03:34:06.432Z,0
2018-08-09T03:35:05.897Z,0
2018-08-09T03:36:05.877Z,4
2018-08-09T03:37:05.875Z,4
2018-08-09T03:38:06.129Z,0
2018-08-09T03:39:06.109Z,4
2018-08-09T03:40:06.104Z,4
2018-08-09T03:41:06.087Z,4
2018-08-09T03:42:06.077Z,8
2018-08-09T03:43:05.796Z,8
2018-08-09T03:44:06.066Z,8
2018-08-09T03:45:05.791Z,8
2018-08-09T03:46:05.763Z,12
2018-08-09T03:47:06.293Z,12
2018-08-09T03:48:06.003Z,16
2018-08-09T03:49:05.992Z,20
2018-08-09T03:50:05.988Z,20
2018-08-09T03:51:06.296Z,28
2018-08-09T03:52:05.693Z,28
2018-08-09T03:53:06.208Z,32
2018-08-09T03:54:05.678Z,32
2018-08-09T03:55:05.400Z,36
2018-08-09T03:56:05.932Z,40
2018-08-09T03:57:05.645Z,40
2018-08-09T03:58:06.203Z,44
2018-08-09T03:59:05.900Z,44
2018-08-09T04:00:05.873Z,48
2018-08-09T04:01:05.596Z,60
2018-08-09T04:02:05.846Z,64
2018-08-09T04:03:05.843Z,72
2018-08-09T04:04:05.565Z,80
2018-08-09T04:05:05.543Z,92
2018-08-09T04:06:05.805Z,108
2018-08-09T04:07:05.522Z,124
2018-08-09T04:08:05.250Z,136
2018-08-09T04:09:05.508Z,152
2018-08-09T04:10:05.497Z,164
2018-08-09T04:11:06.023Z,176
2018-08-09T04:12:06.410Z,184
2018-08-09T04:13:05.989Z,192
2018-08-09T04:14:05.714Z,204
2018-08-09T04:15:05.700Z,220
2018-08-09T04:16:05.687Z,228
2018-08-09T04:17:05.944Z,244
2018-08-09T04:18:05.394Z,256
2018-08-09T04:19:05.660Z,264
2018-08-09T04:20:05.374Z,272
2018-08-09T04:21:05.638Z,272
2018-08-09T04:22:05.085Z,284
2018-08-09T04:23:05.339Z,288
2018-08-09T04:24:05.596Z,292
2018-08-09T04:25:05.315Z,288
2018-08-09T04:26:05.314Z,284
2018-08-09T04:27:05.569Z,300
2018-08-09T04:28:05.290Z,332
2018-08-09T04:29:05.541Z,360
2018-08-09T04:30:05.264Z,364
2018-08-09T04:31:05.775Z,380
2018-08-09T04:32:05.239Z,388
2018-08-09T04:33:05.427Z,400
2018-08-09T04:34:05.472Z,396
2018-08-09T04:35:05.204Z,396
2018-08-09T04:36:05.731Z,408
2018-08-09T04:37:04.922Z,416
2018-08-09T04:38:05.750Z,440
2018-08-09T04:39:05.159Z,452
2018-08-09T04:40:05.678Z,448
2018-08-09T04:41:05.405Z,432
2018-08-09T04:42:04.863Z,396
2018-08-09T04:43:05.117Z,384
2018-08-09T04:44:05.368Z,396
2018-08-09T04:45:05.107Z,352
2018-08-09T04:46:05.611Z,344
2018-08-09T04:47:05.339Z,340
2018-08-09T04:48:05.059Z,336
2018-08-09T04:49:05.311Z,316
2018-08-09T04:50:05.333Z,328
2018-08-09T04:51:05.293Z,372
2018-08-09T04:52:05.281Z,400
2018-08-09T04:53:05.003Z,428
2018-08-09T04:54:04.731Z,440
2018-08-09T04:55:05.253Z,428
2018-08-09T04:56:05.513Z,416
2018-08-09T04:57:05.223Z,376
2018-08-09T04:58:05.358Z,360
2018-08-09T04:59:05.472Z,340
2018-08-09T05:00:04.928Z,332
2018-08-09T05:01:05.182Z,352
2018-08-09T05:02:04.911Z,376
2018-08-09T05:03:04.630Z,352
2018-08-09T05:04:04.892Z,344
2018-08-09T05:05:04.874Z,336
2018-08-09T05:06:05.389Z,340
2018-08-09T05:07:04.862Z,364
2018-08-09T05:08:05.110Z,444
2018-08-09T05:09:04.846Z,544
2018-08-09T05:10:04.827Z,576
2018-08-09T05:11:05.081Z,560
2018-08-09T05:12:05.324Z,612
2018-08-09T05:13:05.321Z,636
2018-08-09T05:14:05.351Z,644
2018-08-09T05:15:05.292Z,628
2018-08-09T05:16:05.202Z,648
2018-08-09T05:17:04.744Z,676
2018-08-09T05:18:05.002Z,664
2018-08-09T05:19:04.727Z,632
2018-08-09T05:20:04.976Z,660
2018-08-09T05:21:04.434Z,672
2018-08-09T05:22:05.050Z,672
2018-08-09T05:23:04.995Z,724
2018-08-09T05:24:04.982Z,844
2018-08-09T05:25:04.664Z,884
2018-08-09T05:26:04.646Z,972
2018-08-09T05:27:04.370Z,1196
2018-08-09T05:28:04.890Z,1296
2018-08-09T05:29:04.878Z,1404
2018-08-09T05:30:04.864Z,1456
2018-08-09T05:31:05.150Z,1308
2018-08-09T05:32:04.593Z,1320
2018-08-09T05:33:04.568Z,1224
2018-08-09T05:34:04.626Z,1124
2018-08-09T05:35:04.815Z,1020
2018-08-09T05:36:05.074Z,1020
2018-08-09T05:37:04.534Z,1076
2018-08-09T05:38:05.060Z,1108
2018-08-09T05:39:04.780Z,1128
2018-08-09T05:40:05.039Z,1248
2018-08-09T05:41:04.487Z,1592
2018-08-09T05:42:04.486Z,1876
2018-08-09T05:43:04.731Z,2036
2018-08-09T05:44:04.730Z,2008
2018-08-09T05:45:04.714Z,1844
2018-08-09T05:46:04.694Z,1740
2018-08-09T05:47:04.694Z,1684
2018-08-09T05:48:04.741Z,1620
2018-08-09T05:49:04.935Z,1556
2018-08-09T05:50:04.653Z,1548
2018-08-09T05:51:04.382Z,1496
2018-08-09T05:52:04.108Z,1552
2018-08-09T05:53:04.974Z,1820
2018-08-09T05:54:04.409Z,1892
2018-08-09T05:55:05.013Z,1844
2018-08-09T05:56:04.332Z,1732
2018-08-09T05:57:04.316Z,1640
2018-08-09T05:58:04.308Z,1600
2018-08-09T05:59:04.824Z,1704
2018-08-09T06:00:04.587Z,1876
2018-08-09T06:01:04.555Z,2104
2018-08-09T06:02:04.269Z,2224
2018-08-09T06:03:04.521Z,2132
2018-08-09T06:04:04.523Z,2088
2018-08-09T06:05:04.498Z,2056
2018-08-09T06:06:04.013Z,2016
2018-08-09T06:07:04.218Z,1904
2018-08-09T06:08:03.946Z,1844
2018-08-09T06:09:04.204Z,1916
2018-08-09T06:10:04.187Z,2060
2018-08-09T06:11:04.178Z,2128
2018-08-09T06:12:03.910Z,2220
2018-08-09T06:13:04.425Z,2380
2018-08-09T06:14:04.145Z,2608
2018-08-09T06:15:03.872Z,2916
2018-08-09T06:16:04.401Z,3132
2018-08-09T06:17:03.860Z,3260
2018-08-09T06:18:04.108Z,3316
2018-08-09T06:19:04.100Z,3428
2018-08-09T06:20:04.078Z,3428
2018-08-09T06:21:04.346Z,3576
2018-08-09T06:22:04.612Z,3872
2018-08-09T06:23:04.339Z,4112
2018-08-09T06:24:04.318Z,4340
2018-08-09T06:25:04.049Z,4268
2018-08-09T06:26:04.040Z,4068
2018-08-09T06:27:04.296Z,3772
2018-08-09T06:28:04.285Z,3472
2018-08-09T06:29:04.007Z,3184
2018-08-09T06:30:04.005Z,2736
2018-08-09T06:31:04.250Z,2056
2018-08-09T06:32:04.504Z,1440
2018-08-09T06:33:04.230Z,1152
2018-08-09T06:34:03.963Z,1068
2018-08-09T06:35:03.956Z,1044
2018-08-09T06:36:04.210Z,992
2018-08-09T06:37:04.199Z,1012
2018-08-09T06:38:04.192Z,1128
2018-08-09T06:39:04.201Z,1432
2018-08-09T06:40:04.178Z,1840
2018-08-09T06:41:03.895Z,2428
2018-08-09T06:42:03.901Z,3012
2018-08-09T06:43:03.615Z,2848
2018-08-09T06:44:04.128Z,2336
2018-08-09T06:45:04.387Z,1856
2018-08-09T06:46:04.378Z,1548
2018-08-09T06:47:03.840Z,1416
2018-08-09T06:48:04.096Z,1376
2018-08-09T06:49:03.827Z,1360
2018-08-09T06:50:03.598Z,1408
2018-08-09T06:51:04.073Z,1728
2018-08-09T06:52:04.328Z,2468
2018-08-09T06:53:04.060Z,3660
2018-08-09T06:54:03.783Z,4696
2018-08-09T06:55:04.032Z,5016
2018-08-09T06:56:03.759Z,4912
2018-08-09T06:57:04.275Z,4372
2018-08-09T06:58:04.034Z,3816
2018-08-09T06:59:04.005Z,3288
2018-08-09T07:00:04.053Z,3076
2018-08-09T07:01:03.977Z,3208
2018-08-09T07:02:04.234Z,3472
2018-08-09T07:03:03.435Z,3344
2018-08-09T07:04:04.221Z,3096
2018-08-09T07:05:03.681Z,3032
2018-08-09T07:06:03.667Z,3004
2018-08-09T07:07:04.056Z,2908
2018-08-09T07:08:03.645Z,3012
2018-08-09T07:09:03.913Z,3316
2018-08-09T07:10:03.637Z,3676
2018-08-09T07:11:03.622Z,4116
2018-08-09T07:12:03.617Z,4248
2018-08-09T07:13:03.872Z,4348
2018-08-09T07:14:03.331Z,4384
2018-08-09T07:15:03.856Z,4560
2018-08-09T07:16:03.863Z,4484
2018-08-09T07:17:03.832Z,4748
2018-08-09T07:18:04.087Z,5396
2018-08-09T07:19:04.090Z,5352
2018-08-09T07:20:03.546Z,5032
2018-08-09T07:21:03.542Z,4488
2018-08-09T07:22:03.787Z,4168
2018-08-09T07:23:03.528Z,3920
2018-08-09T07:24:03.774Z,3680
2018-08-09T07:25:03.770Z,3896
2018-08-09T07:26:03.497Z,4792
2018-08-09T07:27:03.752Z,5916
2018-08-09T07:28:03.745Z,6716
2018-08-09T07:29:03.747Z,7444
2018-08-09T07:30:03.521Z,8404
2018-08-09T07:31:03.989Z,9516
2018-08-09T07:32:03.448Z,9952
2018-08-09T07:33:03.978Z,9748
2018-08-09T07:34:03.708Z,9288
2018-08-09T07:35:03.441Z,8384
2018-08-09T07:36:03.689Z,8116
2018-08-09T07:37:03.413Z,7036
2018-08-09T07:38:03.673Z,6040
2018-08-09T07:39:03.396Z,5676
2018-08-09T07:40:03.406Z,5232
2018-08-09T07:41:03.642Z,4448
2018-08-09T07:42:03.110Z,4172
2018-08-09T07:43:03.636Z,4392
2018-08-09T07:44:03.629Z,4588
2018-08-09T07:45:03.897Z,4164
2018-08-09T07:46:03.344Z,3564
2018-08-09T07:47:03.864Z,2780
2018-08-09T07:48:03.329Z,2228
2018-08-09T07:49:03.056Z,1948
2018-08-09T07:50:03.324Z,1840
2018-08-09T07:51:03.305Z,1784
2018-08-09T07:52:03.835Z,1668
2018-08-09T07:53:03.565Z,1580
2018-08-09T07:54:03.544Z,1612
2018-08-09T07:55:03.277Z,1848
2018-08-09T07:56:03.263Z,2268
2018-08-09T07:57:03.312Z,2784
2018-08-09T07:58:03.520Z,3516
2018-08-09T07:59:03.242Z,4264
2018-08-09T08:00:03.757Z,4892
2018-08-09T08:01:03.739Z,5696
2018-08-09T08:02:03.217Z,6496
2018-08-09T08:03:03.488Z,7324
2018-08-09T08:04:03.466Z,8004
2018-08-09T08:05:03.728Z,8452
2018-08-09T08:06:03.578Z,8180
2018-08-09T08:07:03.456Z,7736
2018-08-09T08:08:03.699Z,7008
2018-08-09T08:09:03.437Z,6868
2018-08-09T08:10:03.423Z,6536
2018-08-09T08:11:03.675Z,6596
2018-08-09T08:12:02.879Z,7204
2018-08-09T08:13:02.871Z,7708
2018-08-09T08:14:03.384Z,8824
2018-08-09T08:15:03.601Z,8712
2018-08-09T08:16:03.636Z,8460
2018-08-09T08:17:03.632Z,8440
2018-08-09T08:18:03.365Z,11760
2018-08-09T08:19:03.620Z,15648
2018-08-09T08:20:03.613Z,10352
2018-08-09T08:21:03.379Z,8900
2018-08-09T08:22:03.070Z,8356
2018-08-09T08:23:04.281Z,9368
2018-08-09T08:24:03.353Z,10224
2018-08-09T08:25:03.583Z,9000
2018-08-09T08:26:03.587Z,8808
2018-08-09T08:27:03.037Z,8688
2018-08-09T08:28:03.573Z,10684
2018-08-09T08:29:48.748Z,7244
2018-08-09T08:40:03.058Z,8720
2018-08-09T08:41:03.042Z,9964
2018-08-09T08:42:02.778Z,10832
2018-08-09T08:43:02.978Z,13488
2018-08-09T08:44:02.757Z,13968
2018-08-09T08:45:02.223Z,13024
2018-08-09T08:46:02.743Z,10296
2018-08-09T08:47:02.742Z,9896
2018-08-09T08:48:02.721Z,7868
2018-08-09T08:49:02.728Z,7008
2018-08-09T08:50:02.718Z,6464
2018-08-09T08:51:02.450Z,6948
2018-08-09T08:52:02.440Z,7096
2018-08-09T08:53:02.221Z,7104
2018-08-09T08:54:02.959Z,7320
2018-08-09T08:55:02.729Z,7680
2018-08-09T08:56:02.943Z,7140
2018-08-09T08:57:02.724Z,6272
2018-08-09T08:58:02.952Z,5616
2018-08-09T08:59:02.387Z,4804
2018-08-09T09:00:02.657Z,4844
2018-08-09T09:01:02.478Z,5772
2018-08-09T09:02:02.918Z,6316
2018-08-09T09:03:02.637Z,6792
2018-08-09T09:04:02.617Z,6576
2018-08-09T09:05:02.743Z,6744
2018-08-09T09:06:02.350Z,6836
2018-08-09T09:07:02.435Z,6460
2018-08-09T09:08:02.069Z,6412
2018-08-09T09:09:02.598Z,7428
2018-08-09T09:10:02.319Z,9224
2018-08-09T09:11:02.585Z,13240
2018-08-09T09:12:02.574Z,16624
2018-08-09T09:13:02.292Z,15000
2018-08-09T09:14:02.030Z,9652
2018-08-09T09:15:02.811Z,8156
2018-08-09T09:16:02.563Z,9024
2018-08-09T09:17:02.280Z,9180
2018-08-09T09:18:02.009Z,9876
2018-08-09T09:19:02.270Z,14640
2018-08-09T09:20:02.528Z,14804
2018-08-09T09:21:02.523Z,12456
2018-08-09T09:22:02.519Z,11912
2018-08-09T09:23:02.774Z,13760
2018-08-09T09:24:02.240Z,16300
2018-08-09T09:25:02.237Z,16012
2018-08-09T09:26:02.494Z,12928
2018-08-09T09:27:02.351Z,10988
2018-08-09T09:28:01.951Z,10844
2018-08-09T09:29:02.472Z,12880
2018-08-09T09:30:02.481Z,15364
2018-08-09T09:31:01.936Z,15204
2018-08-09T09:32:02.206Z,15924
2018-08-09T09:33:02.447Z,14840
2018-08-09T09:34:02.443Z,10508
2018-08-09T09:35:01.941Z,9056
2018-08-09T09:36:02.702Z,11748
2018-08-09T09:37:02.440Z,14628
2018-08-09T09:38:02.438Z,15588
2018-08-09T09:39:02.689Z,14612
2018-08-09T09:40:02.154Z,12872
2018-08-09T09:41:02.409Z,12428
2018-08-09T09:42:02.399Z,12124
2018-08-09T09:43:02.675Z,11748
2018-08-09T09:44:02.700Z,11896
2018-08-09T09:45:02.417Z,12820
2018-08-09T09:46:02.391Z,14804
2018-08-09T09:47:02.644Z,17472
2018-08-09T09:48:02.641Z,18528
2018-08-09T09:49:02.109Z,14456
2018-08-09T09:50:02.384Z,13556
2018-08-09T09:51:02.369Z,15096
2018-08-09T09:52:01.846Z,14856
2018-08-09T09:53:02.619Z,15396
2018-08-09T09:54:02.356Z,15512
2018-08-09T09:55:02.886Z,16488
2018-08-09T09:56:02.422Z,15192
2018-08-09T09:57:02.072Z,15524
2018-08-09T09:58:02.642Z,14104
2018-08-09T09:59:02.324Z,14324
2018-08-09T10:00:02.321Z,12068
2018-08-09T10:01:02.316Z,12304
2018-08-09T10:02:02.758Z,11832
2018-08-09T10:03:02.058Z,11412
2018-08-09T10:04:02.311Z,11368
2018-08-09T10:05:02.048Z,12248
2018-08-09T10:06:02.042Z,15636
2018-08-09T10:07:02.096Z,11148
2018-08-09T10:08:02.614Z,12788
2018-08-09T10:09:02.025Z,12692
2018-08-09T10:10:02.280Z,13180
2018-08-09T10:11:02.548Z,11044
2018-08-09T10:12:02.549Z,9936
2018-08-09T10:13:02.539Z,13392
2018-08-09T10:14:02.270Z,9808
2018-08-09T10:15:02.532Z,7236
2018-08-09T10:16:02.311Z,9576
2018-08-09T10:17:01.986Z,9640
2018-08-09T10:18:02.512Z,9840
2018-08-09T10:19:01.980Z,9996
2018-08-09T10:20:02.259Z,10180
2018-08-09T10:21:01.978Z,12096
2018-08-09T10:22:02.239Z,15392
2018-08-09T10:23:01.712Z,24352
2018-08-09T10:24:02.499Z,22688
2018-08-09T10:25:01.955Z,16712
2018-08-09T10:26:02.219Z,12584
2018-08-09T10:27:01.960Z,11936
2018-08-09T10:28:02.205Z,12448
2018-08-09T10:29:02.473Z,12948
2018-08-09T10:30:02.419Z,12444
2018-08-09T10:31:02.227Z,12560
2018-08-09T10:32:01.670Z,14588
2018-08-09T10:33:02.455Z,12468
2018-08-09T10:34:02.130Z,19000
2018-08-09T10:35:02.466Z,21888
2018-08-09T10:36:02.194Z,21536
2018-08-09T10:37:01.914Z,19168
2018-08-09T10:38:02.441Z,19616
2018-08-09T10:39:02.445Z,15020
2018-08-09T10:40:02.476Z,15228
2018-08-09T10:41:01.901Z,23712
2018-08-09T10:42:02.161Z,16640
2018-08-09T10:43:01.905Z,21440
2018-08-09T10:44:02.151Z,41184
2018-08-09T10:45:01.885Z,67328
2018-08-09T10:46:02.150Z,35872
2018-08-09T10:47:02.145Z,81600
2018-08-09T10:48:02.138Z,77792
2018-08-09T10:49:01.649Z,73056
2018-08-09T10:50:02.144Z,72256
2018-08-09T10:51:02.398Z,71680
2018-08-09T10:52:02.152Z,66848
2018-08-09T10:53:01.868Z,69856
2018-08-09T10:54:01.871Z,68864
2018-08-09T10:55:02.409Z,67072
2018-08-09T10:56:02.200Z,65184
2018-08-09T10:57:02.137Z,38368
2018-08-09T10:58:02.155Z,34272
2018-08-09T10:59:02.139Z,38464
2018-08-09T11:00:02.135Z,55520
2018-08-09T11:01:01.615Z,66656
2018-08-09T11:02:02.149Z,79616
2018-08-09T11:03:02.432Z,83232
2018-08-09T11:04:02.159Z,68192
2018-08-09T11:05:02.419Z,28928
2018-08-09T11:06:02.156Z,49984
2018-08-09T11:07:01.888Z,67872
2018-08-09T11:08:02.154Z,76032
2018-08-09T11:09:02.167Z,82720
2018-08-09T11:10:02.431Z,45312
2018-08-09T11:11:01.904Z,23936
2018-08-09T11:12:02.181Z,98528
2018-08-09T11:13:02.186Z,19840
2018-08-09T11:14:02.440Z,22592
2018-08-09T11:15:02.655Z,23584
2018-08-09T11:16:02.444Z,20128
2018-08-09T11:17:02.081Z,21376
2018-08-09T11:18:02.188Z,43776
2018-08-09T11:19:01.942Z,91936
2018-08-09T11:20:02.194Z,70752
2018-08-09T11:21:02.253Z,60128
2018-08-09T11:22:02.485Z,89952
2018-08-09T11:23:01.942Z,88288
2018-08-09T11:24:01.987Z,76800
2018-08-09T11:25:01.954Z,79968
2018-08-09T11:26:01.954Z,77056
2018-08-09T11:27:02.224Z,75872
2018-08-09T11:28:01.972Z,74208
2018-08-09T11:29:02.230Z,71328
2018-08-09T11:30:02.245Z,71680
2018-08-09T11:31:01.711Z,71168
2018-08-09T11:32:01.715Z,74656
2018-08-09T11:33:01.988Z,77696
2018-08-09T11:34:02.731Z,78272
2018-08-09T11:35:01.732Z,76416
2018-08-09T11:36:02.528Z,78144
2018-08-09T11:37:01.754Z,68288
2018-08-09T11:38:02.547Z,79136
2018-08-09T11:39:02.550Z,78304
2018-08-09T11:40:02.359Z,79712
2018-08-09T11:41:02.303Z,78368
2018-08-09T11:42:02.040Z,76096
2018-08-09T11:43:02.131Z,75424
2018-08-09T11:44:02.180Z,76000
2018-08-09T11:45:02.055Z,78496
2018-08-09T11:46:02.068Z,82880
2018-08-09T11:47:02.336Z,83648
2018-08-09T11:48:02.342Z,28928
2018-08-09T11:49:02.657Z,35072
2018-08-09T11:50:02.369Z,22176
2018-08-09T11:51:02.363Z,36512
2018-08-09T11:52:02.635Z,90048
2018-08-09T11:53:02.395Z,25664
2018-08-09T11:54:02.118Z,15384
2018-08-09T11:55:02.390Z,12952
2018-08-09T11:56:02.693Z,13196
2018-08-09T11:57:02.593Z,12772
2018-08-09T11:58:02.137Z,13536
2018-08-09T11:59:02.681Z,16288
2018-08-09T12:00:02.666Z,23104
2018-08-09T12:01:02.164Z,24128
2018-08-09T12:02:01.898Z,25824
2018-08-09T12:03:02.427Z,101024
2018-08-09T12:04:02.454Z,72640
2018-08-09T12:05:01.907Z,70432
2018-08-09T12:06:02.725Z,65792
2018-08-09T12:07:02.508Z,70304
2018-08-09T12:08:02.740Z,50304
2018-08-09T12:09:02.458Z,35584
2018-08-09T12:10:02.459Z,50080
2018-08-09T12:11:02.217Z,56192
2018-08-09T12:12:02.199Z,52960
2018-08-09T12:13:02.475Z,61568
2018-08-09T12:14:02.213Z,65152
2018-08-09T12:15:03.025Z,67776
2018-08-09T12:16:02.224Z,62432
2018-08-09T12:17:02.309Z,45728
2018-08-09T12:18:02.763Z,18048
2018-08-09T12:19:02.769Z,46496
2018-08-09T12:20:02.768Z,49312
2018-08-09T12:21:02.704Z,45824
2018-08-09T12:22:02.779Z,20032
2018-08-09T12:23:02.516Z,32128
2018-08-09T12:24:02.798Z,24960
2018-08-09T12:25:02.804Z,25472
2018-08-09T12:26:02.543Z,26720
2018-08-09T12:27:02.802Z,19488
2018-08-09T12:28:02.536Z,17376
2018-08-09T12:29:02.808Z,19264
2018-08-09T12:30:02.304Z,14508
2018-08-09T12:31:02.554Z,14204
2018-08-09T12:32:02.298Z,13764
2018-08-09T12:33:02.292Z,12068
2018-08-09T12:34:03.026Z,11356
2018-08-09T12:35:02.311Z,11136
2018-08-09T12:36:02.309Z,11212
2018-08-09T12:37:02.579Z,11468
2018-08-09T12:38:02.311Z,12152
2018-08-09T12:39:02.848Z,11968
2018-08-09T12:40:02.852Z,12040
2018-08-09T12:41:02.326Z,11356
2018-08-09T12:42:02.326Z,10984
2018-08-09T12:43:02.594Z,10648
2018-08-09T12:44:02.330Z,10180
2018-08-09T12:45:02.336Z,9852
2018-08-09T12:46:02.597Z,9556
2018-08-09T12:47:02.627Z,9336
2018-08-09T12:48:02.349Z,9008
2018-08-09T12:49:02.876Z,8668
2018-08-09T12:50:02.866Z,8328
2018-08-09T12:51:02.358Z,8008
2018-08-09T12:52:02.078Z,7664
2018-08-09T12:53:02.625Z,7428
2018-08-09T12:54:02.611Z,7196
2018-08-09T12:55:02.882Z,7072
2018-08-09T12:56:02.882Z,7304
2018-08-09T12:57:02.601Z,7548
2018-08-09T12:58:02.342Z,7696
2018-08-09T12:59:02.867Z,7228
2018-08-09T13:00:02.806Z,6368
2018-08-09T13:01:02.341Z,5412
2018-08-09T13:02:02.606Z,4624
2018-08-09T13:03:02.609Z,4004
2018-08-09T13:04:02.873Z,3448
2018-08-09T13:05:02.337Z,3112
2018-08-09T13:06:02.868Z,3808
2018-08-09T13:07:02.339Z,3000
2018-08-09T13:08:02.870Z,2608
2018-08-09T13:09:02.352Z,1928
2018-08-09T13:10:02.612Z,2332
2018-08-09T13:11:02.694Z,4000
2018-08-09T13:12:02.595Z,5656
2018-08-09T13:13:02.611Z,6924
2018-08-09T13:14:02.059Z,7364
2018-08-09T13:15:02.321Z,6268
2018-08-09T13:16:02.593Z,8416
2018-08-09T13:17:03.132Z,9468
2018-08-09T13:18:02.583Z,10276
2018-08-09T13:19:02.374Z,11128
2018-08-09T13:20:02.614Z,12260
2018-08-09T13:21:02.986Z,14652
2018-08-09T13:22:02.368Z,14008
2018-08-09T13:23:02.316Z,11964
2018-08-09T13:24:02.590Z,11900
2018-08-09T13:25:02.361Z,16320
2018-08-09T13:26:02.582Z,31136
2018-08-09T13:27:02.853Z,15488
2018-08-09T13:28:02.579Z,15864
2018-08-09T13:29:02.303Z,13056
2018-08-09T13:30:02.574Z,15168
2018-08-09T13:31:02.310Z,12812
2018-08-09T13:32:02.566Z,10328
2018-08-09T13:33:02.577Z,7852
2018-08-09T13:34:02.569Z,6312
2018-08-09T13:35:02.846Z,5016
2018-08-09T13:36:02.309Z,4204
2018-08-09T13:37:02.825Z,3608
2018-08-09T13:38:02.905Z,2996
2018-08-09T13:39:02.289Z,2356
2018-08-09T13:40:02.565Z,1880
2018-08-09T13:41:02.826Z,1692
2018-08-09T13:42:02.329Z,1696
2018-08-09T13:43:02.271Z,1580
2018-08-09T13:44:02.545Z,1568
2018-08-09T13:45:02.561Z,1516
2018-08-09T13:46:02.565Z,1396
2018-08-09T13:47:02.024Z,1328